Terminal Aerodrome Forecast
Issued by NWS Denver/Boulder, CO

Home | Current Version | Previous Version | Text Only | Print | Product List | Glossary On
Versions: 1 2 3 4 5 6 7 8 9 10 11 12 13 14 15 16 17 18 19 20 21 22 23 24 25 26 27 28 29 30 31 32 33 34 35 36 37 38 39 40
000
FTUS45 KBOU 191203 AAA
TAFDEN
TAF AMD
KDEN 191203Z 1912/2018 13010KT P6SM BKN140 OVC200
     FM191400 05012G20KT P6SM SCT080 OVC130
     FM191700 07010KT P6SM SCT080 BKN120 OVC180
     FM192100 09012KT P6SM VCSH SCT060 BKN080 OVC120
      TEMPO 1922/2002 VRB15G25KT -SHRA BKN060
     FM200400 13008KT P6SM SCT080 BKN130
     FM200700 22012KT P6SM FEW100 SCT140 BKN200
     FM201600 28008KT P6SM SCT110 BKN180=

USA.gov is the U.S. government's official web portal to all federal, state and local government web resources and services.